sensor_id;sensor_type;location;lat;lon;timestamp;temperature;humidity
35563;DHT22;21665;40.108;18.302;2023-05-14T00:05:09;16.50;99.90
35563;DHT22;21665;40.108;18.302;2023-05-14T00:08:08;16.50;99.90
35563;DHT22;21665;40.108;18.302;2023-05-14T00:10:35;16.50;99.90
35563;DHT22;21665;40.108;18.302;2023-05-14T00:13:01;16.50;99.90
35563;DHT22;21665;40.108;18.302;2023-05-14T00:15:28;16.50;99.90
35563;DHT22;21665;40.108;18.302;2023-05-14T00:17:57;16.60;99.90
35563;DHT22;21665;40.108;18.302;2023-05-14T00:20:23;16.50;99.90
35563;DHT22;21665;40.108;18.302;2023-05-14T00:55:04;16.70;99.90
35563;DHT22;21665;40.108;18.302;2023-05-14T01:01:08;16.60;99.90
35563;DHT22;21665;40.108;18.302;2023-05-14T01:58:24;16.30;99.90
35563;DHT22;21665;40.108;18.302;2023-05-14T02:01:58;16.30;99.90
35563;DHT22;21665;40.108;18.302;2023-05-14T02:05:46;16.40;99.90
35563;DHT22;21665;40.108;18.302;2023-05-14T02:17:02;16.40;99.90
35563;DHT22;21665;40.108;18.302;2023-05-14T02:20:27;16.30;99.90
35563;DHT22;21665;40.108;18.302;2023-05-14T02:23:14;16.30;99.90
35563;DHT22;21665;40.108;18.302;2023-05-14T02:25:49;16.30;99.90
35563;DHT22;21665;40.108;18.302;2023-05-14T02:28:19;16.30;99.90
35563;DHT22;21665;40.108;18.302;2023-05-14T02:43:46;16.40;99.90
35563;DHT22;21665;40.108;18.302;2023-05-14T02:46:18;16.40;99.90
35563;DHT22;21665;40.108;18.302;2023-05-14T02:48:59;16.40;99.90
35563;DHT22;21665;40.108;18.302;2023-05-14T02:51:39;16.40;99.90
35563;DHT22;21665;40.108;18.302;2023-05-14T03:13:02;16.50;99.90
35563;DHT22;21665;40.108;18.302;2023-05-14T03:36:18;16.70;99.90
35563;DHT22;21665;40.108;18.302;2023-05-14T04:27:28;17.00;99.90
35563;DHT22;21665;40.108;18.302;2023-05-14T09:08:15;19.10;99.90
35563;DHT22;21665;40.108;18.302;2023-05-14T09:10:42;19.10;99.90
35563;DHT22;21665;40.108;18.302;2023-05-14T09:13:16;19.10;99.90
35563;DHT22;21665;40.108;18.302;2023-05-14T09:15:47;19.10;99.90
35563;DHT22;21665;40.108;18.302;2023-05-14T09:18:16;19.00;99.90
35563;DHT22;21665;40.108;18.302;2023-05-14T09:20:43;19.00;99.90
35563;DHT22;21665;40.108;18.302;2023-05-14T09:23:09;19.00;99.90
35563;DHT22;21665;40.108;18.302;2023-05-14T09:25:35;19.10;99.90
35563;DHT22;21665;40.108;18.302;2023-05-14T09:28:05;19.20;99.90
35563;DHT22;21665;40.108;18.302;2023-05-14T09:30:32;19.40;99.90
35563;DHT22;21665;40.108;18.302;2023-05-14T09:33:02;19.60;99.90
35563;DHT22;21665;40.108;18.302;2023-05-14T09:35:32;19.60;99.90
35563;DHT22;21665;40.108;18.302;2023-05-14T09:37:58;19.60;99.90
35563;DHT22;21665;40.108;18.302;2023-05-14T09:40:25;19.50;99.90
35563;DHT22;21665;40.108;18.302;2023-05-14T09:42:51;19.30;99.90
35563;DHT22;21665;40.108;18.302;2023-05-14T09:45:18;19.20;99.90
35563;DHT22;21665;40.108;18.302;2023-05-14T09:47:48;19.10;99.90
35563;DHT22;21665;40.108;18.302;2023-05-14T09:50:18;19.20;99.90
35563;DHT22;21665;40.108;18.302;2023-05-14T09:52:47;19.30;99.90
35563;DHT22;21665;40.108;18.302;2023-05-14T09:55:14;19.30;99.90
35563;DHT22;21665;40.108;18.302;2023-05-14T09:57:41;19.70;99.90
35563;DHT22;21665;40.108;18.302;2023-05-14T10:00:08;20.00;99.90
35563;DHT22;21665;40.108;18.302;2023-05-14T10:02:36;20.20;99.90
35563;DHT22;21665;40.108;18.302;2023-05-14T10:05:06;20.20;99.90
35563;DHT22;21665;40.108;18.302;2023-05-14T10:07:40;20.20;99.90
35563;DHT22;21665;40.108;18.302;2023-05-14T10:10:11;19.70;99.90
35563;DHT22;21665;40.108;18.302;2023-05-14T10:12:39;19.50;99.90
35563;DHT22;21665;40.108;18.302;2023-05-14T10:15:16;19.20;99.90
35563;DHT22;21665;40.108;18.302;2023-05-14T10:17:48;19.00;99.90
35563;DHT22;21665;40.108;18.302;2023-05-14T10:20:16;18.90;99.90
35563;DHT22;21665;40.108;18.302;2023-05-14T10:22:43;18.90;99.90
35563;DHT22;21665;40.108;18.302;2023-05-14T10:25:10;18.90;99.90
35563;DHT22;21665;40.108;18.302;2023-05-14T10:27:37;18.90;99.90
35563;DHT22;21665;40.108;18.302;2023-05-14T10:30:11;19.00;99.90
35563;DHT22;21665;40.108;18.302;2023-05-14T10:32:38;19.10;99.90
35563;DHT22;21665;40.108;18.302;2023-05-14T10:35:18;19.30;99.90
35563;DHT22;21665;40.108;18.302;2023-05-14T10:37:50;19.10;99.90
35563;DHT22;21665;40.108;18.302;2023-05-14T10:40:17;19.10;99.90
35563;DHT22;21665;40.108;18.302;2023-05-14T10:42:45;19.10;99.90
35563;DHT22;21665;40.108;18.302;2023-05-14T10:45:13;18.90;99.90
35563;DHT22;21665;40.108;18.302;2023-05-14T10:47:45;19.00;99.90
35563;DHT22;21665;40.108;18.302;2023-05-14T10:50:14;18.90;99.90
35563;DHT22;21665;40.108;18.302;2023-05-14T10:52:43;18.70;99.90
35563;DHT22;21665;40.108;18.302;2023-05-14T10:55:15;18.50;99.90
35563;DHT22;21665;40.108;18.302;2023-05-14T10:57:43;18.50;99.90
35563;DHT22;21665;40.108;18.302;2023-05-14T11:00:11;18.50;99.90
35563;DHT22;21665;40.108;18.302;2023-05-14T11:02:39;18.40;99.90
35563;DHT22;21665;40.108;18.302;2023-05-14T11:05:19;18.30;99.90
35563;DHT22;21665;40.108;18.302;2023-05-14T11:07:49;18.30;99.90
35563;DHT22;21665;40.108;18.302;2023-05-14T11:10:19;18.20;99.90
35563;DHT22;21665;40.108;18.302;2023-05-14T11:12:51;18.20;99.90
35563;DHT22;21665;40.108;18.302;2023-05-14T11:15:20;18.30;99.90
35563;DHT22;21665;40.108;18.302;2023-05-14T11:17:48;18.20;99.90
35563;DHT22;21665;40.108;18.302;2023-05-14T11:20:15;18.30;99.90
35563;DHT22;21665;40.108;18.302;2023-05-14T11:22:46;18.40;99.90
35563;DHT22;21665;40.108;18.302;2023-05-14T11:25:22;18.40;99.90
35563;DHT22;21665;40.108;18.302;2023-05-14T11:27:51;18.40;99.90
35563;DHT22;21665;40.108;18.302;2023-05-14T11:30:21;18.40;99.90
35563;DHT22;21665;40.108;18.302;2023-05-14T12:33:40;17.60;99.90
35563;DHT22;21665;40.108;18.302;2023-05-14T12:37:15;17.60;99.90
35563;DHT22;21665;40.108;18.302;2023-05-14T12:52:16;17.50;99.90
35563;DHT22;21665;40.108;18.302;2023-05-14T13:46:06;18.70;99.90
35563;DHT22;21665;40.108;18.302;2023-05-14T15:10:53;19.00;99.90
35563;DHT22;21665;40.108;18.302;2023-05-14T15:36:42;18.10;99.90
35563;DHT22;21665;40.108;18.302;2023-05-14T15:39:49;18.10;99.90
35563;DHT22;21665;40.108;18.302;2023-05-14T15:43:30;18.00;99.90
35563;DHT22;21665;40.108;18.302;2023-05-14T15:46:58;18.00;99.90
35563;DHT22;21665;40.108;18.302;2023-05-14T18:33:54;17.80;99.90
35563;DHT22;21665;40.108;18.302;2023-05-14T18:39:18;17.80;99.90
35563;DHT22;21665;40.108;18.302;2023-05-14T18:41:48;17.70;99.90
35563;DHT22;21665;40.108;18.302;2023-05-14T18:44:14;17.70;99.90
35563;DHT22;21665;40.108;18.302;2023-05-14T18:46:41;17.70;99.90
35563;DHT22;21665;40.108;18.302;2023-05-14T18:49:10;17.70;99.90
35563;DHT22;21665;40.108;18.302;2023-05-14T18:51:39;17.70;99.90
35563;DHT22;21665;40.108;18.302;2023-05-14T18:54:12;17.70;99.90
35563;DHT22;21665;40.108;18.302;2023-05-14T18:56:40;17.80;99.90
35563;DHT22;21665;40.108;18.302;2023-05-14T18:59:10;17.80;99.90
35563;DHT22;21665;40.108;18.302;2023-05-14T19:01:36;17.80;99.90
35563;DHT22;21665;40.108;18.302;2023-05-14T19:04:05;17.70;99.90
35563;DHT22;21665;40.108;18.302;2023-05-14T19:06:33;17.70;99.90
35563;DHT22;21665;40.108;18.302;2023-05-14T19:09:09;17.70;99.90
35563;DHT22;21665;40.108;18.302;2023-05-14T19:55:20;17.20;99.90
35563;DHT22;21665;40.108;18.302;2023-05-14T19:58:25;17.20;99.90
35563;DHT22;21665;40.108;18.302;2023-05-14T20:22:57;17.10;99.90
35563;DHT22;21665;40.108;18.302;2023-05-14T20:25:33;17.10;99.90
35563;DHT22;21665;40.108;18.302;2023-05-14T20:28:34;17.10;99.90
35563;DHT22;21665;40.108;18.302;2023-05-14T20:31:27;17.10;99.90
35563;DHT22;21665;40.108;18.302;2023-05-14T20:34:41;17.00;99.90
35563;DHT22;21665;40.108;18.302;2023-05-14T20:37:57;17.10;99.90
35563;DHT22;21665;40.108;18.302;2023-05-14T20:40:34;17.10;99.90
35563;DHT22;21665;40.108;18.302;2023-05-14T21:09:54;17.00;99.90
35563;DHT22;21665;40.108;18.302;2023-05-14T21:23:48;17.00;99.90
35563;DHT22;21665;40.108;18.302;2023-05-14T21:26:14;17.00;99.90
35563;DHT22;21665;40.108;18.302;2023-05-14T21:28:41;17.00;99.90
35563;DHT22;21665;40.108;18.302;2023-05-14T21:37:04;16.90;99.90
35563;DHT22;21665;40.108;18.302;2023-05-14T21:40:17;16.90;99.90
35563;DHT22;21665;40.108;18.302;2023-05-14T23:04:31;16.60;99.90
35563;DHT22;21665;40.108;18.302;2023-05-14T23:07:44;16.60;99.90
35563;DHT22;21665;40.108;18.302;2023-05-14T23:11:01;16.50;99.90
35563;DHT22;21665;40.108;18.302;2023-05-14T23:13:46;16.50;99.90
35563;DHT22;21665;40.108;18.302;2023-05-14T23:16:54;16.60;99.90
35563;DHT22;21665;40.108;18.302;2023-05-14T23:19:40;16.60;99.90
35563;DHT22;21665;40.108;18.302;2023-05-14T23:22:47;16.60;99.90
35563;DHT22;21665;40.108;18.302;2023-05-14T23:30:07;16.60;99.90
35563;DHT22;21665;40.108;18.302;2023-05-14T23:47:17;16.60;99.90
35563;DHT22;21665;40.108;18.302;2023-05-14T23:50:05;16.50;99.90
35563;DHT22;21665;40.108;18.302;2023-05-14T23:53:17;16.50;99.90
35563;DHT22;21665;40.108;18.302;2023-05-14T23:56:15;16.50;99.90
35563;DHT22;21665;40.108;18.302;2023-05-14T23:59:19;16.50;99.90
